HAAB METAR and TAF | Updated Today

HAAB METAR

Addis Ababa Bole International Airport

Addis Ababa Bole International Airport (HAAB) hasn't published a METAR.
We found the following current weather conditions for Ādīs from other sources.

Addis Ababa Bole International Airport (HAAB) METAR

  • Weather conditions right now at HAAB:
  • Present conditions: Clear
  • Clouds: Clear sky
  • Cloud cover: 5%
  • Wind: 123 at 5kts
  • Temperature: 17.8 celsius
  • Feels like: 16.4 celsius
  • Pressure: 1019mb
  • Humidity: 30%


Useful to know...

HAAB TAF

Addis Ababa Bole International Airport

TAF HAAB 071830Z 0718/0824 03008KT C A V O K
Observation time: 12:18 hr. ago
Need help? Read our tutorial on how to read TAFs or read the parsed version below.

Parsed version of TAF for Addis Ababa Bole International Airport (HAAB)

  • From 07 December at 18:00 UTC, to day 08 of the month at 24:00 UTC
  • Wind: 30 degrees at 8